This is the latest recevied weather packets stored in our database for station/object SQ7FJB-2. If no packets are shown the sender has not sent any weather packets the latest 10 day(s).
| Time | Temp. | Humidity | Pressure | Rain* | Wind** | Luminosity | Snow |
|---|---|---|---|---|---|---|---|
| 1777669298 | 5.56° C | 82% | 1023.9 hPa | 0 mm | - | - | - |
| 1777668685 | 6.11° C | 80% | 1023.9 hPa | 0 mm | - | - | - |
| 1777668085 | 6.11° C | 79% | 1023.8 hPa | 0 mm | - | - | - |
| 1777667473 | 6.67° C | 79% | 1023.8 hPa | 0 mm | - | - | - |
| 1777666873 | 6.67° C | 78% | 1023.8 hPa | 0 mm | - | - | - |
| 1777666260 | 7.22° C | 76% | 1023.8 hPa | 0 mm | - | - | - |
| 1777665650 | 15.56° C | 44% | 1023.3 hPa | 0 mm | - | - | - |
| 1777658124 | 16.11° C | 43% | 1023.2 hPa | 0 mm | - | - | - |
| 1777657523 | 16.11° C | 41% | 1023.2 hPa | 0 mm | - | - | - |
| 1777656923 | 16.67° C | 41% | 1023.1 hPa | 0 mm | - | - | - |
| 1777656310 | 17.22° C | 40% | 1023.1 hPa | 0 mm | - | - | - |
| 1777655710 | 17.78° C | 38% | 1023.1 hPa | 0 mm | - | - | - |
| 1777655110 | 17.78° C | 37% | 1023 hPa | 0 mm | - | - | - |
| 1777654498 | 17.78° C | 37% | 1023 hPa | 0 mm | - | - | - |
| 1777653897 | 18.33° C | 37% | 1023 hPa | 0 mm | - | - | - |
| 1777653286 | 18.33° C | 38% | 1023 hPa | 0 mm | - | - | - |
| 1777652686 | 18.89° C | 39% | 1023.1 hPa | 0 mm | - | - | - |
| 1777652074 | 18.89° C | 37% | 1023 hPa | 0 mm | - | - | - |
| 1777651473 | 18.89° C | 38% | 1023.1 hPa | 0 mm | - | - | - |
| 1777650873 | 19.44° C | 35% | 1023.2 hPa | 0 mm | - | - | - |
| 1777650260 | 20° C | 36% | 1023.2 hPa | 0 mm | - | - | - |
| 1777649660 | 19.44° C | 37% | 1023.4 hPa | 0 mm | - | - | - |
| 1777649061 | 20° C | 35% | 1023.3 hPa | 0 mm | - | - | - |
| 1777648448 | 20° C | 34% | 1023.4 hPa | 0 mm | - | - | - |
| 1777647835 | 20° C | 36% | 1023.4 hPa | 0 mm | - | - | - |
* Rain latest hour (hover to see other rain measurements)
** Current wind speed in m/s (hover to see current wind gust speed)